createdAt,value
2023-02-19T00:00:29.254Z,0
2023-02-19T00:05:31.761Z,0
2023-02-19T00:10:33.406Z,0
2023-02-19T00:15:35.114Z,0
2023-02-19T00:20:36.818Z,0
2023-02-19T00:25:38.411Z,400.2963
2023-02-19T00:30:40.008Z,0
2023-02-19T00:35:41.727Z,0
2023-02-19T00:40:43.328Z,0
2023-02-19T00:45:46.033Z,0
2023-02-19T00:50:47.627Z,0
2023-02-19T00:55:49.216Z,0
2023-02-19T01:00:51.057Z,0
2023-02-19T01:05:52.783Z,0
2023-02-19T01:10:55.801Z,308.49704
2023-02-19T01:15:57.925Z,296
2023-02-19T01:20:59.495Z,290.06742
2023-02-19T01:26:01.146Z,298.02299
2023-02-19T01:31:02.808Z,290.06742
2023-02-19T01:36:04.476Z,338.87179
2023-02-19T01:41:06.136Z,310.66667
2023-02-19T01:46:07.856Z,324.24691
2023-02-19T01:51:09.887Z,315.08434
2023-02-19T01:56:11.833Z,338.87179
2023-02-19T02:01:13.775Z,377.80282
2023-02-19T02:06:15.581Z,360.21622
2023-02-19T02:11:17.198Z,396.94118
2023-02-19T02:16:18.938Z,333.87342
2023-02-19T02:21:21.762Z,292.0226
2023-02-19T02:26:24.261Z,276.97297
2023-02-19T02:31:26.035Z,280.61202
2023-02-19T02:36:27.704Z,306.35294
2023-02-19T02:41:29.392Z,296
2023-02-19T02:46:31.017Z,306.35294
2023-02-19T02:51:32.734Z,298.02299
2023-02-19T02:56:34.340Z,296
2023-02-19T03:01:36.186Z,294
2023-02-19T03:06:37.857Z,310.66667
2023-02-19T03:11:39.459Z,329
2023-02-19T03:16:42.797Z,324.24691
2023-02-19T03:21:44.730Z,333.87342
2023-02-19T03:26:46.329Z,341.41935
2023-02-19T03:31:48.075Z,365.91781
2023-02-19T03:36:50.049Z,346.61438
2023-02-19T03:41:51.733Z,336.35669
2023-02-19T03:46:53.350Z,329
2023-02-19T03:51:55.063Z,304.23392
2023-02-19T03:56:56.672Z,321.91411
2023-02-19T04:01:58.430Z,294
2023-02-19T04:07:00.154Z,300.06936
2023-02-19T04:12:02.086Z,302.13953
2023-02-19T04:17:03.890Z,310.66667
2023-02-19T04:22:05.600Z,310.66667
2023-02-19T04:27:07.422Z,310.66667
2023-02-19T04:32:09.121Z,302.13953
2023-02-19T04:37:10.802Z,290.06742
2023-02-19T04:42:12.542Z,286.22222
2023-02-19T04:47:14.171Z,319.60976
2023-02-19T04:52:15.762Z,292.0226
2023-02-19T04:57:17.368Z,298.02299
2023-02-19T05:02:19.679Z,273.41176
2023-02-19T05:07:21.508Z,266.51309
2023-02-19T05:12:23.152Z,268.21053
2023-02-19T05:17:25.439Z,280.61202
2023-02-19T05:22:27.166Z,278.78261
2023-02-19T05:27:28.880Z,276.97297
2023-02-19T05:32:30.534Z,278.78261
2023-02-19T05:37:32.164Z,284.33149
2023-02-19T05:42:33.763Z,284.33149
2023-02-19T05:47:35.416Z,286.22222
2023-02-19T05:52:37.069Z,286.22222
2023-02-19T05:57:38.921Z,268.21053
2023-02-19T06:02:40.614Z,264.83333
2023-02-19T06:07:42.536Z,278.78261
2023-02-19T06:12:44.290Z,286.22222
2023-02-19T06:17:45.889Z,292.0226
2023-02-19T06:22:47.627Z,290.06742
2023-02-19T06:27:49.224Z,294
2023-02-19T06:32:50.881Z,284.33149
2023-02-19T06:37:52.661Z,288.13408
2023-02-19T06:42:54.318Z,292.0226
2023-02-19T06:47:55.972Z,304.23392
2023-02-19T06:52:57.695Z,312.86228
2023-02-19T06:57:59.339Z,302.13953
2023-02-19T07:03:01.048Z,324.24691
2023-02-19T07:08:02.646Z,315.08434
2023-02-19T07:13:04.352Z,308.49704
2023-02-19T07:18:05.973Z,333.87342
2023-02-19T07:23:07.840Z,304.23392
2023-02-19T07:28:09.618Z,308.49704
2023-02-19T07:33:11.333Z,302.13953
2023-02-19T07:38:12.940Z,331.42138
2023-02-19T07:43:14.648Z,329
2023-02-19T07:48:16.397Z,326.6087
2023-02-19T07:53:18.373Z,333.87342
2023-02-19T07:58:20.110Z,333.87342
2023-02-19T08:03:22.018Z,329
2023-02-19T08:08:23.683Z,331.42138
2023-02-19T08:13:25.704Z,341.41935
2023-02-19T08:18:27.379Z,321.91411
2023-02-19T08:23:29.185Z,336.35669
2023-02-19T08:28:30.795Z,326.6087
2023-02-19T08:33:32.530Z,338.87179
2023-02-19T08:38:34.272Z,336.35669
2023-02-19T08:43:35.920Z,333.87342
2023-02-19T08:48:37.530Z,321.91411
2023-02-19T08:53:39.298Z,324.24691
2023-02-19T08:58:41.025Z,338.87179
2023-02-19T09:03:42.726Z,336.35669
2023-02-19T09:08:44.445Z,341.41935
2023-02-19T09:13:46.161Z,336.35669
2023-02-19T09:18:47.874Z,329
2023-02-19T09:23:49.493Z,333.87342
2023-02-19T09:28:51.161Z,308.49704
2023-02-19T09:33:52.846Z,298.02299
2023-02-19T09:38:54.701Z,333.87342
2023-02-19T09:43:56.382Z,317.33333
2023-02-19T09:48:58.058Z,331.42138
2023-02-19T09:53:59.709Z,319.60976
2023-02-19T09:59:01.368Z,333.87342
2023-02-19T10:04:03.092Z,317.33333
2023-02-19T10:09:04.729Z,331.42138
2023-02-19T10:14:06.415Z,344
2023-02-19T10:19:08.073Z,300.06936
2023-02-19T10:24:09.740Z,329
2023-02-19T10:29:11.398Z,336.35669
2023-02-19T10:34:13.020Z,331.42138
2023-02-19T10:39:14.672Z,341.41935
2023-02-19T10:44:16.427Z,331.42138
2023-02-19T10:49:18.160Z,341.41935
2023-02-19T10:54:19.788Z,331.42138
2023-02-19T10:59:21.408Z,338.87179
2023-02-19T11:04:23.256Z,351.94702
2023-02-19T11:09:24.891Z,333.87342
2023-02-19T11:14:26.556Z,360.21622
2023-02-19T11:19:28.235Z,351.94702
2023-02-19T11:24:29.894Z,351.94702
2023-02-19T11:29:31.686Z,360.21622
2023-02-19T11:34:33.409Z,377.80282
2023-02-19T11:39:35.020Z,387.16547
2023-02-19T11:44:36.873Z,432.88889
2023-02-19T11:49:38.792Z,440.77419
2023-02-19T11:54:40.529Z,440.77419
2023-02-19T11:59:42.306Z,425.25
2023-02-19T12:04:43.944Z,410.66667
2023-02-19T12:09:45.829Z,407.15789
2023-02-19T12:14:47.656Z,374.76923
2023-02-19T12:19:49.305Z,360.21622
2023-02-19T12:24:51.072Z,377.80282
2023-02-19T12:29:52.871Z,384
2023-02-19T12:34:54.594Z,371.77778
2023-02-19T12:39:56.251Z,387.16547
2023-02-19T12:44:57.978Z,365.91781
2023-02-19T12:49:59.699Z,374.76923
2023-02-19T12:55:01.403Z,384
2023-02-19T13:00:03.412Z,363.04762
2023-02-19T13:05:05.204Z,349.26316
2023-02-19T13:10:06.869Z,365.91781
2023-02-19T13:15:08.706Z,363.04762
2023-02-19T13:20:10.447Z,377.80282
2023-02-19T13:25:12.147Z,354.66667
2023-02-19T13:30:13.866Z,393.63504
2023-02-19T13:35:15.494Z,371.77778
2023-02-19T13:40:17.217Z,365.91781
2023-02-19T13:45:18.990Z,407.15789
2023-02-19T13:50:20.625Z,421.51938
2023-02-19T13:55:22.440Z,414.22901
2023-02-19T14:00:24.122Z,387.16547
2023-02-19T14:05:25.747Z,396.94118
2023-02-19T14:10:27.462Z,390.37681
2023-02-19T14:15:29.310Z,429.03937
2023-02-19T14:20:31.088Z,417.84615
2023-02-19T14:25:32.808Z,380.87943
2023-02-19T14:30:34.592Z,371.77778
2023-02-19T14:35:36.341Z,410.66667
2023-02-19T14:40:38.096Z,414.22901
2023-02-19T14:45:39.932Z,457.33333
2023-02-19T14:50:41.588Z,414.22901
2023-02-19T14:55:43.531Z,393.63504
2023-02-19T15:00:45.224Z,360.21622
2023-02-19T15:05:47.110Z,384
2023-02-19T15:10:48.779Z,349.26316
2023-02-19T15:15:50.624Z,296
2023-02-19T15:20:52.277Z,371.77778
2023-02-19T15:25:53.925Z,346.61438
2023-02-19T15:30:55.673Z,387.16547
2023-02-19T15:35:57.348Z,396.94118
2023-02-19T15:40:59.040Z,371.77778
2023-02-19T15:46:00.776Z,387.16547
2023-02-19T15:51:02.389Z,377.80282
2023-02-19T15:56:04.002Z,384
2023-02-19T16:01:05.684Z,387.16547
2023-02-19T16:06:07.338Z,403.70149
2023-02-19T16:11:09.052Z,371.77778
2023-02-19T16:16:10.895Z,396.94118
2023-02-19T16:21:13.045Z,377.80282
2023-02-19T16:26:14.918Z,371.77778
2023-02-19T16:31:16.963Z,390.37681
2023-02-19T16:36:18.724Z,374.76923
2023-02-19T16:41:20.384Z,0
2023-02-19T16:46:22.099Z,363.04762
2023-02-19T16:51:23.759Z,0
2023-02-19T16:56:25.733Z,0
2023-02-19T17:01:27.537Z,0
2023-02-19T17:06:29.165Z,403.70149
2023-02-19T17:11:30.866Z,0
2023-02-19T17:16:32.641Z,0
2023-02-19T17:21:34.253Z,0
2023-02-19T17:26:35.901Z,0
2023-02-19T17:31:37.881Z,0
2023-02-19T17:36:39.687Z,0
2023-02-19T17:41:41.422Z,0
2023-02-19T17:46:43.184Z,0
2023-02-19T17:51:44.860Z,0
2023-02-19T17:56:46.591Z,0
2023-02-19T18:01:48.419Z,0
2023-02-19T18:06:50.048Z,489.13274
2023-02-19T18:11:51.694Z,530.66667
2023-02-19T18:16:53.569Z,536.30769
2023-02-19T18:21:55.270Z,509.13761
2023-02-19T18:26:56.907Z,0
2023-02-19T18:31:58.972Z,484.35088
2023-02-19T18:37:01.678Z,0
2023-02-19T18:42:03.367Z,0
2023-02-19T18:47:05.044Z,519.70093
2023-02-19T18:52:06.841Z,530.66667
2023-02-19T18:57:08.553Z,553.90099
2023-02-19T19:02:10.392Z,547.92157
2023-02-19T19:07:12.141Z,553.90099
2023-02-19T19:12:13.755Z,0
2023-02-19T19:17:15.736Z,536.30769
2023-02-19T19:22:17.640Z,0
2023-02-19T19:27:19.387Z,0
2023-02-19T19:32:21.641Z,0
2023-02-19T19:37:23.389Z,0
2023-02-19T19:42:25.047Z,0
2023-02-19T19:47:26.829Z,0
2023-02-19T19:52:28.487Z,0
2023-02-19T19:57:30.259Z,0
2023-02-19T20:02:32.331Z,0
2023-02-19T20:07:34.023Z,0
2023-02-19T20:12:35.697Z,0
2023-02-19T20:17:37.397Z,0
2023-02-19T20:22:39.083Z,0
2023-02-19T20:27:40.686Z,0
2023-02-19T20:32:42.448Z,0
2023-02-19T20:37:44.045Z,0
2023-02-19T20:42:45.662Z,0
2023-02-19T20:47:47.707Z,0
2023-02-19T20:52:49.395Z,0
2023-02-19T20:57:51.034Z,0
2023-02-19T21:02:52.945Z,0
2023-02-19T21:07:54.778Z,0
2023-02-19T21:12:57.165Z,0
2023-02-19T21:17:58.885Z,0
2023-02-19T21:23:00.762Z,0
2023-02-19T21:28:02.452Z,0
2023-02-19T21:33:04.154Z,0
2023-02-19T21:38:05.851Z,0
2023-02-19T21:43:07.618Z,0
2023-02-19T21:48:09.433Z,0
2023-02-19T21:53:11.191Z,0
2023-02-19T21:58:12.858Z,0
2023-02-19T22:03:14.725Z,0
2023-02-19T22:08:16.425Z,0
2023-02-19T22:13:18.121Z,0
2023-02-19T22:18:19.945Z,0
2023-02-19T22:23:21.672Z,0
2023-02-19T22:28:23.361Z,0
2023-02-19T22:33:25.212Z,0
2023-02-19T22:38:26.839Z,0
2023-02-19T22:43:28.531Z,0
2023-02-19T22:48:30.537Z,0
2023-02-19T22:53:32.198Z,0
2023-02-19T22:58:33.868Z,0
2023-02-19T23:03:35.618Z,0
2023-02-19T23:08:37.345Z,0
2023-02-19T23:13:38.993Z,0
2023-02-19T23:18:40.781Z,0
2023-02-19T23:23:42.464Z,0
2023-02-19T23:28:44.101Z,0
2023-02-19T23:33:45.800Z,0
2023-02-19T23:38:47.474Z,0
2023-02-19T23:43:49.072Z,0
2023-02-19T23:48:50.751Z,0
2023-02-19T23:53:52.475Z,0
2023-02-19T23:58:54.202Z,0
